Huxford, Alabama
Current Conditions -  °F | °C
As of 2:53 PM on Friday 19 Dec 2014 (Local Time) from KGZH Reporting Station
Overcast Overcast  
Wind Chill: 56°   Ceiling: 4300
Heat Index: 56°   Visibility: 10mi
Dew Point: 38°   Wind: 5mph
Humidity: 51%   Direction: 360°N
Pressure: 30.1"   Gusts: NA
Location:  31.22°N, 87.46°W
Report Text: KGZH 192053Z AUTO 36004KT 10SM BKN043 OVC090 13/03 A3010 RMK AO2 RAB38E52 SLP190 P0000 60000 T01330033 55018
Loading
Personal Weather Stations






























Interactive Weather Map New forecast layout! Learn more

10-Day Weather Forecast

Advertisements
Track Severe Weather on mobile